Time;durP1;ratioP1;P1;durP2;ratioP2;P2;SDS_P1;SDS_P2;PMS_P1;PMS_P2;Temp;Humidity;BMP_temperature;BMP_pressure;BME280_temperature;BME280_humidity;BME280_pressure;Samples;Min_cycle;Max_cycle;Signal;HPM_P1;HPM_P2
2021/05/17 00:02:16;;;;;;;2.23;0.70;;;;;;;10.86;100.00;97012.47;5095705;28;20723;-67
2021/05/17 00:04:42;;;;;;;0.60;0.60;;;;;;;10.85;100.00;97016.09;5096045;28;20218;-67
2021/05/17 00:07:11;;;;;;;0.80;0.70;;;;;;;10.88;100.00;97010.56;5096115;28;20210;-67
2021/05/17 00:09:38;;;;;;;1.77;0.67;;;;;;;10.97;100.00;97020.28;5095753;28;20677;-66
2021/05/17 00:12:05;;;;;;;1.20;0.63;;;;;;;10.92;100.00;97017.22;5095931;28;20207;-67
2021/05/17 00:14:34;;;;;;;1.20;0.73;;;;;;;10.81;100.00;97019.97;5097141;28;20207;-67
2021/05/17 00:17:00;;;;;;;1.17;0.63;;;;;;;10.85;100.00;97022.22;5097300;28;20213;-66
2021/05/17 00:19:26;;;;;;;1.53;0.73;;;;;;;10.78;100.00;97021.09;5096919;28;20224;-67
2021/05/17 00:21:53;;;;;;;1.87;0.80;;;;;;;10.75;100.00;97028.41;5096905;28;20210;-67
2021/05/17 00:24:20;;;;;;;1.00;0.80;;;;;;;10.78;100.00;97030.81;5094219;28;20329;-67
2021/05/17 00:26:47;;;;;;;0.60;0.60;;;;;;;10.83;100.00;97028.63;5095697;28;20570;-67
2021/05/17 00:29:13;;;;;;;0.70;0.70;;;;;;;10.82;100.00;97032.22;5095622;28;20575;-67
2021/05/17 00:31:42;;;;;;;3.30;0.90;;;;;;;10.79;100.00;97037.75;5095252;28;20207;-67
2021/05/17 00:34:09;;;;;;;1.07;0.80;;;;;;;10.73;100.00;97038.31;5095485;28;20209;-67
2021/05/17 00:36:36;;;;;;;1.00;0.60;;;;;;;10.75;100.00;97033.72;5095376;28;20207;-67
2021/05/17 00:39:06;;;;;;;0.77;0.67;;;;;;;10.73;100.00;97033.88;5095168;28;20206;-68
2021/05/17 00:41:33;;;;;;;2.63;0.70;;;;;;;10.78;100.00;97038.75;5095061;28;20241;-67
2021/05/17 00:43:59;;;;;;;0.90;0.50;;;;;;;10.79;100.00;97035.13;5094898;28;20239;-67
2021/05/17 00:46:26;;;;;;;1.50;0.67;;;;;;;10.86;100.00;97038.91;5095365;28;20209;-66
2021/05/17 00:48:53;;;;;;;0.60;0.60;;;;;;;10.93;100.00;97035.59;5094671;28;20219;-67
2021/05/17 00:51:20;;;;;;;2.60;1.43;;;;;;;10.90;100.00;97035.03;5094280;28;20206;-68
2021/05/17 00:53:46;;;;;;;1.43;0.60;;;;;;;10.90;100.00;97021.81;5095115;28;20208;-69
2021/05/17 00:56:13;;;;;;;1.43;0.80;;;;;;;10.77;100.00;97029.97;5095083;28;20597;-67
2021/05/17 00:58:39;;;;;;;2.50;0.87;;;;;;;10.70;100.00;97033.31;5094942;28;20206;-67
2021/05/17 01:01:07;;;;;;;0.77;0.70;;;;;;;10.67;100.00;97033.56;5094701;28;20205;-67
2021/05/17 01:03:34;;;;;;;2.13;0.90;;;;;;;10.61;100.00;97042.00;5094770;28;20237;-67
2021/05/17 01:06:03;;;;;;;0.73;0.63;;;;;;;10.57;100.00;97038.78;5094850;28;20210;-66
2021/05/17 01:08:34;;;;;;;1.60;0.80;;;;;;;10.63;100.00;97037.41;5094685;28;20213;-67
2021/05/17 01:11:04;;;;;;;2.03;0.73;;;;;;;10.64;100.00;97034.66;5094886;28;20211;-67
2021/05/17 01:13:30;;;;;;;0.77;0.60;;;;;;;10.68;100.00;97024.66;5094797;28;20239;-67
2021/05/17 01:15:58;;;;;;;1.03;0.70;;;;;;;10.66;100.00;97027.44;5093054;28;20217;-67
2021/05/17 01:18:24;;;;;;;1.23;0.77;;;;;;;10.63;100.00;97029.47;5094309;28;20668;-68
2021/05/17 01:20:53;;;;;;;1.80;0.80;;;;;;;10.58;100.00;97026.44;5094891;28;20255;-68
2021/05/17 01:23:32;;;;;;;1.07;0.60;;;;;;;10.52;100.00;97019.03;5094558;28;20242;-67
2021/05/17 01:26:00;;;;;;;1.80;0.70;;;;;;;10.43;100.00;97020.66;5094596;28;20215;-67
2021/05/17 01:28:29;;;;;;;2.00;0.70;;;;;;;10.36;100.00;97016.03;5094437;28;20207;-67
2021/05/17 01:30:59;;;;;;;1.50;0.60;;;;;;;10.33;100.00;97024.22;5094336;28;20271;-67
2021/05/17 01:33:31;;;;;;;1.77;0.80;;;;;;;10.33;100.00;97021.59;5094266;28;20215;-67
2021/05/17 01:35:58;;;;;;;0.80;0.80;;;;;;;10.35;100.00;97023.09;5093984;28;20686;-67
2021/05/17 01:38:26;;;;;;;1.40;0.80;;;;;;;10.38;100.00;97024.66;5094237;28;20208;-67
2021/05/17 01:40:54;;;;;;;1.73;0.77;;;;;;;10.35;100.00;97020.47;5094130;28;20283;-67
2021/05/17 01:43:22;;;;;;;1.57;0.80;;;;;;;10.34;100.00;97025.91;5092380;28;20226;-67
2021/05/17 01:45:49;;;;;;;1.17;0.77;;;;;;;10.27;100.00;97030.03;5093794;28;20207;-67
2021/05/17 01:48:20;;;;;;;1.47;0.73;;;;;;;10.11;100.00;97024.38;5094000;28;20210;-66
2021/05/17 01:50:46;;;;;;;0.60;0.60;;;;;;;10.06;100.00;97029.19;5093965;28;20578;-67
2021/05/17 01:53:14;;;;;;;2.23;0.80;;;;;;;10.00;100.00;97027.03;5093970;28;20233;-66
2021/05/17 01:55:42;;;;;;;0.57;0.57;;;;;;;9.95;100.00;97029.22;5093843;28;20267;-67
2021/05/17 01:58:09;;;;;;;1.57;0.90;;;;;;;9.91;100.00;97033.94;5093904;28;20218;-66
2021/05/17 02:00:36;;;;;;;1.17;0.87;;;;;;;9.98;100.00;97039.53;5093614;28;20279;-66
2021/05/17 02:03:02;;;;;;;2.57;1.00;;;;;;;10.06;100.00;97042.41;5093653;28;20234;-66
2021/05/17 02:05:29;;;;;;;0.93;0.73;;;;;;;10.14;100.00;97035.50;5093532;28;20214;-66
2021/05/17 02:07:55;;;;;;;0.77;0.60;;;;;;;10.15;100.00;97039.81;5092146;28;20556;-66
2021/05/17 02:10:22;;;;;;;1.03;0.83;;;;;;;10.17;100.00;97035.25;5093700;28;20225;-66
2021/05/17 02:12:49;;;;;;;1.20;0.60;;;;;;;10.17;100.00;97029.13;5093252;28;20213;-66
2021/05/17 02:15:17;;;;;;;1.53;0.50;;;;;;;10.14;100.00;97026.75;5093698;28;20252;-66
2021/05/17 02:17:45;;;;;;;1.67;0.60;;;;;;;10.00;100.00;97027.03;5093756;28;20214;-66
2021/05/17 02:20:16;;;;;;;1.03;0.60;;;;;;;9.92;100.00;97029.50;5093413;28;20205;-67
2021/05/17 02:22:43;;;;;;;0.83;0.60;;;;;;;9.92;100.00;97030.31;5093294;28;20251;-66
2021/05/17 02:25:11;;;;;;;1.40;0.70;;;;;;;10.06;100.00;97037.13;5093602;28;20225;-67
2021/05/17 02:27:41;;;;;;;1.50;1.00;;;;;;;10.21;100.00;97030.56;5093328;28;20216;-67
2021/05/17 02:30:11;;;;;;;0.97;0.70;;;;;;;10.30;100.00;97035.88;5093222;28;20207;-68
2021/05/17 02:32:37;;;;;;;0.70;0.70;;;;;;;10.32;100.00;97033.09;5093303;28;20217;-66
2021/05/17 02:35:04;;;;;;;0.77;0.50;;;;;;;10.34;100.00;97039.94;5091953;28;20217;-67
2021/05/17 02:37:32;;;;;;;0.77;0.60;;;;;;;10.36;100.00;97035.38;5093392;28;20214;-66
2021/05/17 02:39:58;;;;;;;0.93;0.57;;;;;;;10.35;100.00;97032.84;5093112;28;20214;-68
2021/05/17 02:42:28;;;;;;;1.40;0.70;;;;;;;10.25;100.00;97037.22;5093393;28;20254;-68
2021/05/17 02:44:54;;;;;;;1.00;0.87;;;;;;;10.29;100.00;97038.66;5093142;28;20215;-64
2021/05/17 02:47:22;;;;;;;0.63;0.63;;;;;;;10.27;100.00;97045.88;5093309;28;20251;-67
2021/05/17 02:49:50;;;;;;;0.60;0.60;;;;;;;10.15;100.00;97047.75;5093192;28;20202;-66
2021/05/17 02:52:17;;;;;;;2.33;0.67;;;;;;;10.08;100.00;97045.75;5093242;28;20228;-66
2021/05/17 02:54:44;;;;;;;1.53;0.63;;;;;;;10.06;100.00;97037.13;5093384;28;20264;-67
2021/05/17 02:57:13;;;;;;;2.10;0.90;;;;;;;10.15;100.00;97057.47;5093350;28;20226;-66
2021/05/17 03:00:13;;;;;;;1.23;0.73;;;;;;;10.19;100.00;97059.72;5091343;28;20360;-66
2021/05/17 03:02:51;;;;;;;1.73;0.80;;;;;;;10.17;100.00;97066.94;5030374;28;20697;-66
2021/05/17 03:05:17;;;;;;;0.50;0.50;;;;;;;10.12;100.00;97063.84;5030461;28;20239;-66
2021/05/17 03:07:47;;;;;;;1.33;0.90;;;;;;;9.99;100.00;97064.97;5062899;28;20211;-66
2021/05/17 03:10:14;;;;;;;0.60;0.60;;;;;;;10.07;100.00;97067.81;5093031;28;20207;-67
2021/05/17 03:12:41;;;;;;;0.57;0.57;;;;;;;10.05;100.00;97069.75;5092984;28;20219;-67
2021/05/17 03:15:09;;;;;;;0.67;0.50;;;;;;;10.05;100.00;97061.84;5092937;28;20209;-66
2021/05/17 03:17:36;;;;;;;1.73;0.60;;;;;;;10.08;100.00;97061.56;5092658;28;20203;-66
2021/05/17 03:20:05;;;;;;;1.23;0.57;;;;;;;10.09;100.00;97068.56;5092984;28;20208;-66
2021/05/17 03:22:32;;;;;;;1.30;0.40;;;;;;;10.11;100.00;97063.97;5092771;28;20666;-66
2021/05/17 03:24:59;;;;;;;0.47;0.47;;;;;;;10.19;100.00;97061.50;5095169;28;20698;-66
2021/05/17 03:27:27;;;;;;;0.50;0.50;;;;;;;10.25;100.00;97066.28;5094805;28;20672;-70
2021/05/17 03:29:54;;;;;;;0.50;0.50;;;;;;;10.31;100.00;97057.84;5096451;28;20225;-69
2021/05/17 03:32:22;;;;;;;0.60;0.57;;;;;;;10.34;100.00;97063.69;5096531;28;20218;-67
2021/05/17 03:34:48;;;;;;;0.50;0.50;;;;;;;10.33;100.00;97066.50;5096464;28;20205;-67
2021/05/17 03:37:15;;;;;;;2.47;0.60;;;;;;;10.29;100.00;97065.88;5096470;28;20583;-68
2021/05/17 03:39:44;;;;;;;0.77;0.60;;;;;;;10.29;100.00;97071.16;5096691;28;20283;-68
2021/05/17 03:42:10;;;;;;;2.60;0.60;;;;;;;10.28;100.00;97063.41;5096588;28;20234;-68
2021/05/17 03:44:36;;;;;;;1.10;0.50;;;;;;;10.17;100.00;97066.09;5096280;28;20221;-68
2021/05/17 03:47:02;;;;;;;1.30;0.63;;;;;;;10.12;100.00;97071.78;5096162;28;20209;-67
2021/05/17 03:49:28;;;;;;;0.97;0.83;;;;;;;10.17;100.00;97071.38;5096236;28;20235;-67
2021/05/17 03:51:54;;;;;;;2.20;0.60;;;;;;;10.24;100.00;97078.66;5094487;28;20203;-66
2021/05/17 03:54:21;;;;;;;0.80;0.53;;;;;;;10.29;100.00;97086.19;5096350;28;20213;-66
2021/05/17 03:56:47;;;;;;;0.50;0.50;;;;;;;10.35;100.00;97090.94;5096147;28;20211;-66
2021/05/17 03:59:15;;;;;;;0.60;0.60;;;;;;;10.36;100.00;97089.97;5096253;28;20214;-66
2021/05/17 04:01:42;;;;;;;0.97;0.40;;;;;;;10.37;100.00;97099.56;5096174;28;20345;-66
2021/05/17 04:04:09;;;;;;;0.70;0.60;;;;;;;10.42;100.00;97092.94;5095807;28;20321;-68
2021/05/17 04:06:42;;;;;;;0.60;0.60;;;;;;;10.51;100.00;97101.91;5095810;28;20221;-68
2021/05/17 04:14:49;;;;;;;0.80;0.50;;;;;;;10.59;100.00;97110.81;5091225;28;20340;-67
2021/05/17 04:17:15;;;;;;;0.77;0.53;;;;;;;10.62;100.00;97113.22;5095661;28;20257;-68
2021/05/17 04:19:41;;;;;;;1.27;0.90;;;;;;;10.59;100.00;97115.28;5094095;28;20772;-65
2021/05/17 04:22:07;;;;;;;1.43;0.70;;;;;;;10.67;100.00;97123.38;5095784;28;20294;-65
2021/05/17 04:24:33;;;;;;;1.10;0.80;;;;;;;10.65;100.00;97120.06;5095467;28;20265;-65
2021/05/17 04:27:00;;;;;;;1.03;0.60;;;;;;;10.63;100.00;97116.69;5095356;28;20211;-65
2021/05/17 04:29:27;;;;;;;0.87;0.50;;;;;;;10.57;100.00;97125.13;5095648;28;20294;-66
2021/05/17 04:31:53;;;;;;;1.90;0.60;;;;;;;10.67;100.00;97120.75;5095268;28;20218;-65
2021/05/17 04:34:19;;;;;;;0.50;0.50;;;;;;;10.80;100.00;97122.22;5095389;28;20205;-65
2021/05/17 04:36:45;;;;;;;1.03;0.60;;;;;;;10.89;100.00;97125.88;5095374;28;20214;-67
2021/05/17 04:39:11;;;;;;;0.97;0.60;;;;;;;10.94;100.00;97121.03;5095492;28;20215;-65
2021/05/17 04:41:37;;;;;;;0.50;0.47;;;;;;;10.94;100.00;97126.31;5095319;28;20243;-66
2021/05/17 04:44:04;;;;;;;0.50;0.50;;;;;;;10.93;100.00;97127.25;5093550;28;20720;-65
2021/05/17 04:46:31;;;;;;;1.47;0.70;;;;;;;10.89;100.00;97123.22;5095352;28;20276;-65
2021/05/17 04:48:57;;;;;;;1.57;0.73;;;;;;;10.89;100.00;97128.53;5095171;28;20579;-66
2021/05/17 04:51:24;;;;;;;0.50;0.50;;;;;;;10.87;100.00;97126.00;5095013;28;20254;-66
2021/05/17 04:53:51;;;;;;;0.73;0.40;;;;;;;10.90;99.26;97125.72;5094893;28;20207;-66
2021/05/17 04:56:18;;;;;;;1.60;0.90;;;;;;;10.96;98.44;97129.66;5095093;28;20211;-66
2021/05/17 04:58:44;;;;;;;0.70;0.50;;;;;;;11.29;97.54;97129.34;5094759;28;20210;-66
2021/05/17 05:01:10;;;;;;;0.50;0.50;;;;;;;11.61;93.88;97122.09;5094930;28;20236;-65
2021/05/17 05:03:37;;;;;;;0.77;0.50;;;;;;;11.63;91.79;97133.38;5094985;28;20632;-66
2021/05/17 05:06:03;;;;;;;0.40;0.40;;;;;;;11.62;93.06;97142.31;5094945;28;20267;-66
2021/05/17 05:08:29;;;;;;;0.40;0.40;;;;;;;11.67;93.27;97137.44;5094863;28;20214;-66
2021/05/17 05:10:55;;;;;;;1.37;0.50;;;;;;;11.69;91.43;97135.50;5093272;28;20207;-65
2021/05/17 05:13:21;;;;;;;1.60;0.40;;;;;;;11.69;90.60;97141.59;5094793;28;20217;-65
2021/05/17 05:15:51;;;;;;;0.50;0.40;;;;;;;11.79;91.30;97144.28;5094450;28;20680;-65
2021/05/17 05:18:17;;;;;;;0.60;0.40;;;;;;;11.86;89.27;97145.41;5094614;28;20207;-66
2021/05/17 05:20:44;;;;;;;1.23;0.50;;;;;;;11.70;87.88;97147.75;5094278;28;20213;-65
2021/05/17 05:23:13;;;;;;;0.97;0.40;;;;;;;11.61;89.90;97159.16;5094458;28;20325;-66
2021/05/17 05:26:00;;;;;;;1.17;0.60;;;;;;;11.73;89.98;97152.78;5094247;28;20678;-66
2021/05/17 05:28:34;;;;;;;0.83;0.50;;;;;;;12.52;82.87;97149.84;5094572;28;20212;-66
2021/05/17 05:31:04;;;;;;;0.30;0.30;;;;;;;13.82;78.74;97149.66;5094240;28;20676;-66
2021/05/17 05:33:30;;;;;;;0.87;0.40;;;;;;;14.52;76.52;97152.34;5094384;28;20243;-66
2021/05/17 05:35:58;;;;;;;0.63;0.47;;;;;;;14.25;72.77;97147.16;5092345;28;20711;-66
2021/05/17 05:38:24;;;;;;;1.17;0.40;;;;;;;13.88;75.77;97147.22;5093988;28;20244;-66
2021/05/17 05:40:50;;;;;;;1.67;0.73;;;;;;;13.52;77.86;97156.09;5094015;28;20292;-66
2021/05/17 05:43:18;;;;;;;0.90;0.47;;;;;;;13.17;78.67;97152.50;5094103;28;20227;-66
2021/05/17 05:45:45;;;;;;;0.93;0.40;;;;;;;12.68;78.09;97158.06;5094170;28;20209;-66
2021/05/17 05:48:11;;;;;;;1.27;0.40;;;;;;;13.74;75.32;97152.25;5093478;28;20219;-66
2021/05/17 05:50:38;;;;;;;0.83;0.30;;;;;;;15.54;67.47;97163.03;5093740;28;20207;-67
2021/05/17 05:53:05;;;;;;;2.47;0.60;;;;;;;16.65;65.31;97160.63;5093834;28;20225;-65
2021/05/17 05:55:31;;;;;;;1.37;0.50;;;;;;;17.11;61.87;97159.09;5093979;28;20207;-65
2021/05/17 05:57:57;;;;;;;2.00;0.60;;;;;;;16.33;64.27;97165.09;5094025;28;20214;-64
2021/05/17 06:00:29;;;;;;;0.70;0.43;;;;;;;15.52;66.54;97171.16;5094094;28;20205;-64
2021/05/17 06:02:55;;;;;;;0.50;0.30;;;;;;;14.85;67.06;97172.91;5092245;28;20235;-65
2021/05/17 06:05:21;;;;;;;0.40;0.40;;;;;;;14.40;69.92;97166.88;5093571;28;20342;-66
2021/05/17 06:07:47;;;;;;;0.50;0.50;;;;;;;13.57;72.29;97171.63;5093873;28;20291;-66
2021/05/17 06:10:15;;;;;;;0.73;0.50;;;;;;;13.17;75.20;97181.69;5093473;28;20212;-65
2021/05/17 06:12:41;;;;;;;1.47;0.60;;;;;;;12.99;78.14;97183.41;5093749;28;20222;-65
2021/05/17 06:15:08;;;;;;;1.63;0.50;;;;;;;12.91;79.08;97185.94;5093747;28;20211;-65
2021/05/17 06:17:35;;;;;;;1.03;0.50;;;;;;;12.78;79.53;97186.22;5093483;28;20240;-64
2021/05/17 06:20:02;;;;;;;1.90;0.70;;;;;;;12.68;79.63;97203.13;5093548;28;20207;-65
2021/05/17 06:22:29;;;;;;;1.33;0.60;;;;;;;12.47;80.41;97202.47;5093511;28;20238;-65
2021/05/17 06:24:57;;;;;;;0.50;0.50;;;;;;;12.35;80.31;97216.81;5093580;28;20218;-65
2021/05/17 06:27:24;;;;;;;0.87;0.60;;;;;;;12.31;81.38;97207.47;5093191;28;20211;-65
2021/05/17 06:29:53;;;;;;;1.70;0.63;;;;;;;12.29;80.33;97215.53;5091814;28;20215;-64
2021/05/17 06:32:20;;;;;;;1.33;0.50;;;;;;;12.24;80.04;97216.94;5093162;28;20207;-66
2021/05/17 06:34:49;;;;;;;0.97;0.60;;;;;;;12.16;80.74;97217.63;5093405;28;20217;-66
2021/05/17 06:37:16;;;;;;;0.53;0.30;;;;;;;12.10;82.16;97220.00;5093436;28;20209;-66
2021/05/17 06:39:42;;;;;;;1.33;0.50;;;;;;;12.13;82.63;97219.72;5093384;28;20220;-66
2021/05/17 06:42:10;;;;;;;1.23;0.60;;;;;;;12.14;83.06;97222.22;5093012;28;20719;-65
2021/05/17 06:44:38;;;;;;;1.57;0.50;;;;;;;12.35;82.05;97220.28;5092986;28;20753;-65
2021/05/17 06:47:05;;;;;;;0.67;0.40;;;;;;;12.53;79.75;97228.41;5093123;28;20208;-65
2021/05/17 06:49:31;;;;;;;1.27;0.50;;;;;;;12.69;81.63;97228.66;5092873;28;20210;-65
2021/05/17 06:51:59;;;;;;;0.40;0.40;;;;;;;12.84;80.54;97219.31;5092838;28;20668;-65
2021/05/17 06:54:28;;;;;;;0.67;0.50;;;;;;;12.93;79.65;97221.94;5091189;28;20676;-65
2021/05/17 06:57:00;;;;;;;0.80;0.57;;;;;;;13.38;80.44;97232.75;5093251;28;20292;-65
2021/05/17 06:59:27;;;;;;;0.87;0.50;;;;;;;13.96;77.51;97239.47;5096464;28;20208;-65
2021/05/17 07:01:56;;;;;;;1.37;0.53;;;;;;;14.43;74.15;97230.38;5097285;28;20207;-65
2021/05/17 07:04:23;;;;;;;0.50;0.40;;;;;;;14.64;74.01;97236.22;5097326;28;20242;-65
2021/05/17 07:06:53;;;;;;;1.73;0.40;;;;;;;14.77;73.48;97236.66;5093838;28;20623;-65
2021/05/17 07:12:09;;;;;;;1.23;0.60;;;;;;;14.39;71.47;97243.16;5095595;28;20285;-65
2021/05/17 07:14:35;;;;;;;0.90;0.50;;;;;;;14.13;73.10;97249.31;5095955;28;20210;-65
2021/05/17 07:17:02;;;;;;;0.50;0.30;;;;;;;13.85;71.56;97250.28;5097064;28;20220;-65
2021/05/17 07:19:28;;;;;;;1.20;0.40;;;;;;;13.71;75.05;97242.81;5096959;28;20202;-65
2021/05/17 07:24:38;;;;;;;0.80;0.40;;;;;;;13.57;77.62;97253.91;5096480;28;20755;-65
2021/05/17 07:27:05;;;;;;;0.67;0.50;;;;;;;13.87;77.43;97246.50;5096819;28;20299;-65
2021/05/17 07:29:33;;;;;;;0.50;0.30;;;;;;;14.01;75.17;97255.81;5096548;28;20673;-65
2021/05/17 07:31:59;;;;;;;0.70;0.60;;;;;;;14.04;72.08;97247.50;5096855;28;20297;-65
2021/05/17 07:34:25;;;;;;;0.63;0.60;;;;;;;14.18;73.19;97250.50;5096459;28;20666;-65
2021/05/17 07:36:52;;;;;;;1.03;0.43;;;;;;;14.42;69.92;97252.66;5096569;28;20212;-65
2021/05/17 07:39:18;;;;;;;1.07;0.40;;;;;;;14.76;69.42;97248.31;5096728;28;20211;-65
2021/05/17 07:41:44;;;;;;;0.83;0.50;;;;;;;15.09;70.04;97258.25;5096445;28;20265;-65
2021/05/17 07:44:11;;;;;;;1.80;0.90;;;;;;;15.01;66.73;97255.50;5096510;28;20240;-65
2021/05/17 07:46:37;;;;;;;2.03;0.80;;;;;;;14.83;64.93;97254.66;5094680;28;20249;-65
2021/05/17 07:49:12;;;;;;;1.53;0.50;;;;;;;14.59;67.04;97254.44;5096067;28;20212;-65
2021/05/17 07:51:42;;;;;;;1.43;0.40;;;;;;;14.80;68.43;97257.66;5096408;28;20242;-65
2021/05/17 07:54:08;;;;;;;1.20;0.60;;;;;;;15.11;68.31;97257.09;5096276;28;20223;-65
2021/05/17 07:56:35;;;;;;;1.83;0.70;;;;;;;15.52;66.74;97255.56;5096053;28;20232;-65
2021/05/17 07:59:01;;;;;;;2.70;0.70;;;;;;;15.98;65.29;97267.44;5096128;28;20236;-65
2021/05/17 08:01:27;;;;;;;1.90;0.70;;;;;;;15.77;62.89;97271.50;5095955;28;20671;-65
2021/05/17 08:03:53;;;;;;;1.37;0.70;;;;;;;15.69;65.05;97274.13;5095806;28;20318;-65
2021/05/17 08:06:19;;;;;;;1.50;0.67;;;;;;;15.41;64.88;97271.81;5096173;28;20292;-65
2021/05/17 08:08:46;;;;;;;1.03;0.70;;;;;;;15.05;65.84;97267.50;5095901;28;20211;-65
2021/05/17 08:11:12;;;;;;;1.00;0.50;;;;;;;14.73;66.54;97272.56;5095293;28;20281;-65
2021/05/17 08:13:39;;;;;;;1.40;0.70;;;;;;;14.95;65.66;97270.25;5094251;28;20584;-65
2021/05/17 08:16:06;;;;;;;2.70;1.20;;;;;;;14.78;66.22;97276.41;5095939;28;20214;-65
2021/05/17 08:18:32;;;;;;;2.00;0.90;;;;;;;14.63;66.56;97275.28;5095873;28;20214;-65
2021/05/17 08:20:58;;;;;;;1.87;0.60;;;;;;;14.54;65.82;97272.72;5095906;28;20231;-65
2021/05/17 08:23:24;;;;;;;1.10;0.47;;;;;;;14.60;67.51;97261.47;5095391;28;20707;-65
2021/05/17 08:25:51;;;;;;;0.50;0.40;;;;;;;14.52;67.85;97270.19;5095687;28;20240;-65
2021/05/17 08:28:17;;;;;;;1.37;0.50;;;;;;;14.52;67.31;97266.69;5095416;28;20220;-65
2021/05/17 08:30:44;;;;;;;1.37;0.80;;;;;;;14.68;69.19;97269.50;5095403;28;20212;-65
2021/05/17 08:33:12;;;;;;;3.03;0.80;;;;;;;15.05;68.54;97272.84;5095359;28;20214;-65
2021/05/17 08:35:39;;;;;;;2.00;0.90;;;;;;;15.13;65.18;97272.88;5095591;28;20215;-65
2021/05/17 08:38:06;;;;;;;1.83;0.70;;;;;;;15.21;67.81;97267.66;5095558;28;20204;-65
2021/05/17 08:40:34;;;;;;;1.13;0.40;;;;;;;15.14;67.90;97271.88;5093546;28;20268;-65
2021/05/17 08:43:01;;;;;;;1.97;0.50;;;;;;;14.89;64.96;97273.53;5092598;28;20232;-65
2021/05/17 08:45:27;;;;;;;2.67;0.60;;;;;;;14.84;64.88;97275.00;5092779;28;20208;-65
2021/05/17 08:47:54;;;;;;;0.93;0.40;;;;;;;14.88;67.37;97268.34;5094602;28;20228;-66
2021/05/17 08:50:20;;;;;;;0.57;0.40;;;;;;;15.06;64.22;97261.19;5094317;28;20210;-66
2021/05/17 08:52:46;;;;;;;1.33;0.50;;;;;;;15.34;65.46;97270.75;5091246;28;20208;-66
2021/05/17 08:55:13;;;;;;;0.77;0.57;;;;;;;15.59;62.08;97264.59;5094088;28;20334;-65
2021/05/17 08:57:42;;;;;;;0.63;0.60;;;;;;;15.87;63.93;97271.38;5094433;28;20204;-65
2021/05/17 09:00:10;;;;;;;0.50;0.40;;;;;;;16.33;61.89;97275.25;5093187;28;20210;-65
2021/05/17 09:02:36;;;;;;;1.27;0.53;;;;;;;16.41;59.32;97271.81;5093414;28;20213;-65
2021/05/17 09:05:15;;;;;;;1.00;0.40;;;;;;;16.30;60.15;97272.91;5093199;28;20232;-66
2021/05/17 09:07:42;;;;;;;0.33;0.30;;;;;;;15.90;59.65;97276.41;5095213;28;20266;-65
2021/05/17 09:10:20;;;;;;;1.23;0.73;;;;;;;15.87;62.39;97279.38;5094617;28;20298;-66
2021/05/17 09:13:11;;;;;;;1.03;0.60;;;;;;;15.94;62.64;97283.09;5094981;28;20214;-66
2021/05/17 09:15:40;;;;;;;0.73;0.50;;;;;;;16.01;59.97;97273.47;5084349;28;20220;-66
2021/05/17 09:18:10;;;;;;;1.73;0.80;;;;;;;16.07;61.37;97278.97;5093973;28;20286;-65
2021/05/17 09:20:38;;;;;;;0.73;0.53;;;;;;;15.82;61.09;97289.72;5094223;28;20210;-66
2021/05/17 09:23:10;;;;;;;0.90;0.50;;;;;;;15.73;64.22;97285.31;5093582;28;20273;-65
2021/05/17 09:25:37;;;;;;;2.10;0.60;;;;;;;15.01;71.30;97290.09;5094486;28;20205;-66
2021/05/17 09:28:04;;;;;;;0.87;0.60;;;;;;;14.63;75.01;97277.09;5094573;28;20214;-66
2021/05/17 09:30:48;;;;;;;0.60;0.60;;;;;;;15.02;76.68;97286.47;5094142;28;20212;-66
2021/05/17 09:33:15;;;;;;;1.27;0.60;;;;;;;15.50;70.38;97285.00;5092315;28;20682;-66
2021/05/17 09:35:45;;;;;;;0.70;0.50;;;;;;;16.01;69.07;97289.47;5094153;28;20794;-66
2021/05/17 09:38:25;;;;;;;2.53;0.50;;;;;;;16.43;68.72;97289.31;5094178;28;20216;-66
2021/05/17 09:41:05;;;;;;;1.30;0.40;;;;;;;16.24;68.31;97297.56;5093173;28;20738;-66
2021/05/17 09:43:33;;;;;;;0.53;0.40;;;;;;;16.32;70.15;97299.41;5093309;28;20240;-65
2021/05/17 09:46:00;;;;;;;1.13;0.63;;;;;;;16.59;69.25;97286.69;5093616;28;20217;-66
2021/05/17 09:48:29;;;;;;;0.83;0.40;;;;;;;16.79;66.60;97293.41;5093351;28;20206;-65
2021/05/17 09:51:07;;;;;;;2.07;0.60;;;;;;;16.98;66.66;97285.09;5093229;28;20220;-65
2021/05/17 09:53:35;;;;;;;1.00;0.40;;;;;;;17.57;63.07;97287.44;5093543;28;20557;-65
2021/05/17 09:56:07;;;;;;;1.40;0.50;;;;;;;17.85;61.78;97288.69;5093204;28;20210;-65
2021/05/17 09:58:35;;;;;;;1.20;0.33;;;;;;;17.98;60.01;97289.00;5091431;28;20210;-65
2021/05/17 10:01:14;;;;;;;0.43;0.30;;;;;;;17.94;59.05;97292.19;5093203;28;20206;-65
2021/05/17 10:03:43;;;;;;;0.63;0.27;;;;;;;17.66;59.06;97278.38;5093243;28;20238;-65
2021/05/17 10:06:11;;;;;;;0.63;0.30;;;;;;;17.52;60.73;97281.75;5093005;28;20213;-65
2021/05/17 10:08:37;;;;;;;1.60;0.60;;;;;;;17.28;60.32;97279.09;5093060;28;20202;-65
2021/05/17 10:11:05;;;;;;;0.93;0.57;;;;;;;17.00;59.64;97269.72;5093005;28;20210;-65
2021/05/17 10:13:34;;;;;;;8.20;6.70;;;;;;;16.84;60.26;97288.41;5093111;28;20217;-65
2021/05/17 10:16:03;;;;;;;0.77;0.60;;;;;;;16.65;58.37;97274.53;5092870;28;20217;-65
2021/05/17 10:18:30;;;;;;;0.30;0.30;;;;;;;16.43;59.36;97281.31;5093009;28;20297;-65
2021/05/17 10:20:56;;;;;;;1.53;0.70;;;;;;;16.66;60.93;97281.53;5092677;28;20240;-65
2021/05/17 10:23:22;;;;;;;1.33;0.50;;;;;;;16.84;58.29;97280.41;5092895;28;20238;-65
2021/05/17 10:25:49;;;;;;;1.07;0.57;;;;;;;17.13;58.14;97286.09;5091311;28;20279;-65
2021/05/17 10:28:18;;;;;;;1.10;0.80;;;;;;;17.22;58.63;97271.75;5092650;28;20248;-65
2021/05/17 10:30:44;;;;;;;2.07;1.20;;;;;;;17.37;57.06;97283.44;5092700;28;20210;-65
2021/05/17 10:33:12;;;;;;;0.60;0.40;;;;;;;17.61;59.14;97279.91;5092615;28;20218;-65
2021/05/17 10:35:50;;;;;;;0.60;0.40;;;;;;;17.84;57.27;97275.50;5092794;28;20703;-65
2021/05/17 10:38:24;;;;;;;0.37;0.30;;;;;;;17.99;55.56;97277.28;5091343;28;20268;-66
2021/05/17 10:40:56;;;;;;;0.33;0.30;;;;;;;18.07;56.52;97276.44;5090778;28;20237;-66
2021/05/17 10:43:59;;;;;;;0.30;0.30;;;;;;;18.04;55.11;97277.59;5091985;28;20317;-66
2021/05/17 10:46:37;;;;;;;1.23;0.40;;;;;;;18.25;55.59;97269.84;5090711;28;20251;-66
2021/05/17 10:49:23;;;;;;;2.03;1.30;;;;;;;18.25;55.63;97280.53;5090236;28;20217;-66
2021/05/17 10:51:52;;;;;;;1.67;0.50;;;;;;;18.13;53.55;97255.19;5090598;28;20212;-66
2021/05/17 10:54:27;;;;;;;1.80;0.93;;;;;;;18.27;55.40;97267.81;5091883;28;20638;-66
2021/05/17 10:56:57;;;;;;;0.90;0.40;;;;;;;18.10;54.76;97266.22;5092436;28;20245;-66
2021/05/17 11:02:17;;;;;;;0.20;0.20;;;;;;;18.68;54.48;97260.44;5092443;28;20218;-66
2021/05/17 11:04:55;;;;;;;0.40;0.40;;;;;;;18.90;55.02;97262.31;5092364;28;20244;-66
2021/05/17 11:07:27;;;;;;;1.20;0.40;;;;;;;19.07;54.60;97275.38;5092651;28;20214;-66
2021/05/17 11:10:07;;;;;;;0.83;0.40;;;;;;;19.60;53.72;97263.72;5092565;28;20207;-66
2021/05/17 11:13:13;;;;;;;0.43;0.43;;;;;;;19.70;53.12;97273.16;5092613;28;20206;-65
2021/05/17 11:16:05;;;;;;;0.90;0.33;;;;;;;18.92;54.82;97287.03;5089354;28;20250;-66
2021/05/17 11:18:34;;;;;;;0.97;0.70;;;;;;;17.33;62.71;97319.47;5082073;28;20310;-66
2021/05/17 11:21:02;;;;;;;0.93;0.63;;;;;;;15.88;70.66;97318.38;5091447;28;20242;-66
2021/05/17 11:23:53;;;;;;;0.80;0.50;;;;;;;14.40;76.37;97318.41;5091528;28;20242;-65
2021/05/17 11:26:23;;;;;;;2.20;0.70;;;;;;;13.73;81.74;97308.06;5089676;28;20293;-65
2021/05/17 11:29:06;;;;;;;0.60;0.40;;;;;;;13.35;86.42;97315.28;5090507;28;20633;-65
2021/05/17 11:31:45;;;;;;;1.80;0.50;;;;;;;13.13;89.22;97321.75;5090745;28;20460;-65
2021/05/17 11:34:14;;;;;;;6.40;1.40;;;;;;;12.78;90.10;97334.69;5091635;28;20211;-65
2021/05/17 11:36:43;;;;;;;2.03;1.07;;;;;;;12.37;98.49;97334.09;5091149;28;20232;-62
2021/05/17 11:39:13;;;;;;;3.93;1.07;;;;;;;11.99;100.00;97334.00;5090577;28;20214;-63
2021/05/17 11:41:42;;;;;;;2.13;1.20;;;;;;;11.76;100.00;97337.78;5091465;28;20240;-62
2021/05/17 11:44:09;;;;;;;3.67;1.23;;;;;;;11.72;100.00;97345.16;5091046;28;20286;-63
2021/05/17 11:46:37;;;;;;;3.63;1.73;;;;;;;11.87;100.00;97356.22;5091976;28;20210;-63
2021/05/17 11:49:05;;;;;;;3.27;1.30;;;;;;;12.24;100.00;97342.28;5095363;28;20220;-63
2021/05/17 11:51:32;;;;;;;2.53;1.20;;;;;;;12.82;100.00;97343.22;5095183;28;20207;-62